Time;durP1;ratioP1;P1;durP2;ratioP2;P2;SDS_P1;SDS_P2;PMS_P1;PMS_P2;Temp;Humidity;BMP_temperature;BMP_pressure;BME280_temperature;BME280_humidity;BME280_pressure;Samples;Min_cycle;Max_cycle;Signal;HPM_P1;HPM_P2
2022/01/19 07:08:03;;;;;;;78.40;33.95;;;;;;;;;;5042833;23;20145;-61
2022/01/19 07:10:31;;;;;;;71.72;31.67;;;;;;;;;;4960100;28;20018;-61
2022/01/19 07:12:58;;;;;;;86.72;37.97;;;;;;;;;;4964569;28;20072;-62
2022/01/19 07:15:25;;;;;;;93.32;39.80;;;;;;;;;;4964908;28;20015;-62
2022/01/19 07:17:51;;;;;;;116.00;53.33;;;;;;;;;;4966068;28;20505;-62
2022/01/19 07:20:17;;;;;;;127.60;59.50;;;;;;;;;;4963905;28;20030;-62
2022/01/19 07:22:43;;;;;;;115.55;53.90;;;;;;;;;;4945738;28;20101;-62
2022/01/19 07:25:10;;;;;;;98.53;45.83;;;;;;;;;;4965968;28;20027;-63
2022/01/19 07:27:36;;;;;;;106.70;46.17;;;;;;;;;;4967811;28;20030;-65
2022/01/19 07:30:03;;;;;;;86.22;38.55;;;;;;;;;;4961864;28;20050;-64
2022/01/19 07:32:33;;;;;;;74.95;35.85;;;;;;;;;;4958949;28;20047;-62
2022/01/19 07:34:59;;;;;;;80.32;33.65;;;;;;;;;;4963064;28;20067;-63
2022/01/19 07:37:25;;;;;;;72.57;33.70;;;;;;;;;;4960761;28;20039;-63
2022/01/19 07:39:51;;;;;;;75.45;36.08;;;;;;;;;;4963335;28;20485;-63
2022/01/19 07:42:18;;;;;;;66.43;32.22;;;;;;;;;;4965163;28;20035;-62
2022/01/19 07:44:44;;;;;;;63.58;27.65;;;;;;;;;;4973581;28;20030;-62
2022/01/19 07:47:10;;;;;;;61.97;28.90;;;;;;;;;;4975491;28;20034;-62
2022/01/19 07:49:36;;;;;;;68.22;29.50;;;;;;;;;;4975337;28;20382;-62
2022/01/19 07:52:02;;;;;;;53.70;24.92;;;;;;;;;;4975015;28;20101;-62
2022/01/19 07:54:28;;;;;;;52.72;22.92;;;;;;;;;;4964355;28;20022;-60
2022/01/19 07:56:54;;;;;;;44.42;21.73;;;;;;;;;;4963715;28;20069;-60
2022/01/19 07:59:21;;;;;;;51.80;21.13;;;;;;;;;;4974300;28;20101;-62
2022/01/19 08:01:47;;;;;;;50.33;20.52;;;;;;;;;;4975202;28;20038;-61
2022/01/19 08:04:13;;;;;;;49.63;21.27;;;;;;;;;;4974451;28;20027;-61
2022/01/19 08:06:39;;;;;;;45.20;19.80;;;;;;;;;;4966654;28;20422;-62
2022/01/19 08:09:07;;;;;;;46.38;20.08;;;;;;;;;;4974756;28;20039;-62
2022/01/19 08:11:33;;;;;;;43.70;19.75;;;;;;;;;;4970342;28;20498;-61
2022/01/19 08:13:59;;;;;;;43.30;19.45;;;;;;;;;;4955077;28;20035;-60
2022/01/19 08:16:26;;;;;;;46.80;20.05;;;;;;;;;;4955516;29;20054;-61
2022/01/19 08:18:52;;;;;;;49.17;19.80;;;;;;;;;;4962399;28;20057;-60
2022/01/19 08:21:18;;;;;;;56.40;22.67;;;;;;;;;;4959707;28;20439;-60
2022/01/19 08:23:44;;;;;;;47.97;20.30;;;;;;;;;;4954661;28;20027;-63
2022/01/19 08:26:15;;;;;;;48.28;20.50;;;;;;;;;;4963618;28;20047;-60
2022/01/19 08:28:41;;;;;;;52.35;19.27;;;;;;;;;;4969230;28;20382;-61
2022/01/19 08:31:07;;;;;;;42.70;19.38;;;;;;;;;;4964638;28;20043;-64
2022/01/19 08:33:33;;;;;;;47.33;20.42;;;;;;;;;;4955010;28;20110;-61
2022/01/19 08:35:59;;;;;;;48.78;20.77;;;;;;;;;;4957646;28;20376;-61
2022/01/19 08:38:25;;;;;;;45.90;20.58;;;;;;;;;;4963425;28;20505;-62
2022/01/19 08:40:52;;;;;;;47.10;20.13;;;;;;;;;;4965471;28;20435;-62
2022/01/19 08:43:18;;;;;;;47.10;19.35;;;;;;;;;;4962701;28;20043;-60
2022/01/19 08:45:44;;;;;;;45.85;21.25;;;;;;;;;;4959245;28;20098;-60
2022/01/19 08:48:10;;;;;;;56.42;22.95;;;;;;;;;;4954479;28;20023;-60
2022/01/19 08:50:36;;;;;;;45.75;21.25;;;;;;;;;;4958343;28;20055;-61
2022/01/19 08:53:03;;;;;;;54.63;20.65;;;;;;;;;;4959694;28;20043;-60
2022/01/19 08:55:29;;;;;;;50.65;20.02;;;;;;;;;;4961175;28;20035;-60
2022/01/19 08:57:55;;;;;;;41.38;17.45;;;;;;;;;;4963394;28;20062;-61
2022/01/19 09:00:22;;;;;;;39.47;16.23;;;;;;;;;;4962290;28;20387;-61
2022/01/19 09:02:48;;;;;;;44.53;17.17;;;;;;;;;;4946460;29;20039;-60
2022/01/19 09:05:15;;;;;;;41.17;17.00;;;;;;;;;;4953881;28;20079;-60
2022/01/19 09:07:41;;;;;;;41.67;17.77;;;;;;;;;;4953414;28;20069;-60
2022/01/19 09:10:08;;;;;;;41.05;16.50;;;;;;;;;;4954334;28;20497;-59
2022/01/19 09:12:34;;;;;;;50.70;18.77;;;;;;;;;;4953811;28;20114;-59
2022/01/19 09:15:00;;;;;;;51.42;19.23;;;;;;;;;;4936356;29;20043;-61
2022/01/19 09:17:27;;;;;;;47.53;18.70;;;;;;;;;;4960722;28;20035;-60
2022/01/19 09:19:53;;;;;;;41.13;18.42;;;;;;;;;;4959965;28;20054;-60
2022/01/19 09:22:19;;;;;;;45.33;18.20;;;;;;;;;;4956735;28;20439;-60
2022/01/19 09:24:45;;;;;;;44.85;17.27;;;;;;;;;;4958608;28;20464;-61
2022/01/19 09:27:14;;;;;;;45.60;17.90;;;;;;;;;;4954063;28;20379;-61
2022/01/19 09:29:42;;;;;;;43.45;16.85;;;;;;;;;;4960210;28;20458;-60
2022/01/19 09:32:10;;;;;;;36.95;15.75;;;;;;;;;;4957854;28;20129;-61
2022/01/19 09:34:36;;;;;;;37.20;14.82;;;;;;;;;;4958860;28;20019;-61
2022/01/19 09:37:02;;;;;;;42.88;17.35;;;;;;;;;;4960257;28;20122;-60
2022/01/19 09:39:28;;;;;;;44.92;17.88;;;;;;;;;;4964043;28;20019;-62
2022/01/19 09:41:55;;;;;;;37.45;17.17;;;;;;;;;;4965762;28;20030;-61
2022/01/19 09:44:24;;;;;;;39.65;17.95;;;;;;;;;;4959921;28;20023;-61
2022/01/19 09:46:50;;;;;;;43.75;17.55;;;;;;;;;;4964947;28;20039;-59
2022/01/19 09:49:17;;;;;;;39.08;16.05;;;;;;;;;;4953755;28;20110;-60
2022/01/19 09:51:47;;;;;;;39.67;15.70;;;;;;;;;;4955783;28;20039;-59
2022/01/19 09:54:17;;;;;;;40.88;15.70;;;;;;;;;;4960909;28;20468;-60
2022/01/19 09:56:44;;;;;;;42.05;14.75;;;;;;;;;;4959464;28;20019;-59
2022/01/19 09:59:13;;;;;;;33.92;13.13;;;;;;;;;;4962135;28;20027;-59
2022/01/19 10:01:49;;;;;;;38.55;13.13;;;;;;;;;;4942352;29;20031;-60
2022/01/19 10:04:23;;;;;;;24.50;11.10;;;;;;;;;;4953183;28;20031;-59
2022/01/19 10:06:49;;;;;;;30.00;11.75;;;;;;;;;;4953278;28;20031;-62
2022/01/19 10:09:23;;;;;;;30.15;11.23;;;;;;;;;;4959793;28;20538;-59
2022/01/19 10:17:06;;;;;;;32.05;11.18;;;;;;;;;;4967564;28;20546;-61
2022/01/19 10:19:42;;;;;;;20.98;7.93;;;;;;;;;;4964637;28;20088;-61
2022/01/19 10:22:08;;;;;;;30.88;10.07;;;;;;;;;;4962554;28;20038;-61
2022/01/19 10:25:02;;;;;;;26.88;9.77;;;;;;;;;;4964713;28;20105;-61
2022/01/19 10:27:34;;;;;;;29.60;8.75;;;;;;;;;;4952928;28;20053;-63
2022/01/19 10:30:03;;;;;;;30.90;9.02;;;;;;;;;;4960583;28;20082;-61
2022/01/19 10:32:42;;;;;;;23.98;7.75;;;;;;;;;;4964037;28;20042;-61
2022/01/19 10:35:18;;;;;;;27.80;7.65;;;;;;;;;;4960445;28;20023;-61
2022/01/19 10:37:45;;;;;;;25.17;7.40;;;;;;;;;;4963195;28;20089;-61
2022/01/19 10:40:15;;;;;;;20.65;7.15;;;;;;;;;;4963845;28;20430;-60
2022/01/19 10:42:41;;;;;;;29.77;8.45;;;;;;;;;;4961045;28;20030;-61
2022/01/19 10:45:09;;;;;;;26.83;8.20;;;;;;;;;;4952389;28;20035;-61
2022/01/19 10:47:38;;;;;;;32.70;10.27;;;;;;;;;;4960479;28;20023;-61
2022/01/19 10:50:05;;;;;;;23.23;8.45;;;;;;;;;;4961991;28;20034;-61
2022/01/19 10:52:32;;;;;;;27.70;8.43;;;;;;;;;;4961768;28;20035;-61
2022/01/19 10:54:59;;;;;;;26.60;9.68;;;;;;;;;;4958237;28;20032;-61
2022/01/19 10:57:26;;;;;;;22.85;8.43;;;;;;;;;;4959414;28;20072;-61
2022/01/19 10:59:53;;;;;;;26.35;8.23;;;;;;;;;;4967756;28;20088;-61
2022/01/19 11:02:20;;;;;;;24.58;7.63;;;;;;;;;;4952881;28;20166;-61
2022/01/19 11:04:46;;;;;;;22.05;7.28;;;;;;;;;;4961285;28;20077;-61
2022/01/19 11:07:15;;;;;;;26.23;7.55;;;;;;;;;;4957833;28;20023;-61
2022/01/19 11:09:46;;;;;;;22.70;7.90;;;;;;;;;;4954354;28;20039;-61
2022/01/19 11:12:18;;;;;;;19.17;7.15;;;;;;;;;;4955833;28;20039;-61
2022/01/19 11:14:45;;;;;;;22.48;7.30;;;;;;;;;;4958509;28;20097;-61
2022/01/19 11:17:11;;;;;;;18.75;6.90;;;;;;;;;;4959378;28;20038;-60
2022/01/19 11:19:38;;;;;;;26.17;7.32;;;;;;;;;;4960533;28;20023;-62
2022/01/19 11:22:23;;;;;;;30.35;7.78;;;;;;;;;;4957284;28;20484;-60
2022/01/19 11:24:59;;;;;;;26.10;8.52;;;;;;;;;;4954336;28;20047;-61
2022/01/19 11:27:28;;;;;;;26.40;8.60;;;;;;;;;;4952305;28;20023;-61
2022/01/19 11:30:13;;;;;;;23.00;9.15;;;;;;;;;;4952289;28;20019;-61
2022/01/19 11:32:40;;;;;;;26.08;9.35;;;;;;;;;;4952011;28;20117;-61
2022/01/19 11:35:06;;;;;;;24.05;9.55;;;;;;;;;;4952103;28;20019;-62
2022/01/19 11:37:38;;;;;;;28.90;10.18;;;;;;;;;;4952397;28;20074;-61
2022/01/19 11:40:12;;;;;;;25.00;9.23;;;;;;;;;;4954928;28;20475;-61
2022/01/19 11:42:39;;;;;;;38.05;12.45;;;;;;;;;;4959143;28;20530;-61
2022/01/19 11:45:06;;;;;;;28.55;11.52;;;;;;;;;;4955544;28;20106;-61
2022/01/19 11:47:32;;;;;;;39.97;19.52;;;;;;;;;;4952000;28;20046;-61
2022/01/19 11:50:01;;;;;;;45.17;20.52;;;;;;;;;;4952023;28;20094;-61
2022/01/19 11:52:51;;;;;;;31.58;11.95;;;;;;;;;;4952469;28;20506;-61
2022/01/19 11:55:21;;;;;;;24.13;9.20;;;;;;;;;;4955579;28;20589;-61
2022/01/19 11:57:48;;;;;;;28.25;9.43;;;;;;;;;;4955685;28;20102;-61
2022/01/19 12:00:14;;;;;;;29.40;10.98;;;;;;;;;;4955771;28;20023;-61
2022/01/19 12:02:42;;;;;;;31.85;9.60;;;;;;;;;;4955588;28;20019;-61
2022/01/19 12:05:11;;;;;;;27.05;9.85;;;;;;;;;;4955507;28;20438;-61
2022/01/19 12:07:42;;;;;;;29.17;10.10;;;;;;;;;;4955065;28;20071;-61
2022/01/19 12:10:13;;;;;;;25.25;9.90;;;;;;;;;;4955256;28;20046;-61
2022/01/19 12:12:55;;;;;;;30.40;9.67;;;;;;;;;;4954948;28;20039;-61
2022/01/19 12:15:40;;;;;;;30.60;10.20;;;;;;;;;;4955434;28;20253;-61
2022/01/19 12:18:10;;;;;;;42.67;14.00;;;;;;;;;;4955045;28;20038;-61
2022/01/19 12:20:52;;;;;;;31.70;10.55;;;;;;;;;;4955499;28;20030;-61
2022/01/19 12:23:18;;;;;;;;;;;;;;;;;;4955600;28;20480;-61
2022/01/19 12:25:54;;;;;;;23.27;9.07;;;;;;;;;;4955001;28;19960;-61
2022/01/19 12:28:40;;;;;;;32.58;10.40;;;;;;;;;;4954975;28;20027;-61
2022/01/19 12:31:25;;;;;;;31.15;10.27;;;;;;;;;;4954878;28;20122;-61
2022/01/19 12:34:04;;;;;;;27.70;10.95;;;;;;;;;;4954866;28;20031;-61
2022/01/19 12:36:46;;;;;;;37.55;12.80;;;;;;;;;;4954664;28;20031;-62
2022/01/19 12:39:28;;;;;;;39.72;15.10;;;;;;;;;;4954572;28;20023;-62
2022/01/19 12:41:54;;;;;;;50.63;18.10;;;;;;;;;;4936671;28;20463;-60
2022/01/19 12:44:35;;;;;;;38.28;12.60;;;;;;;;;;4954798;28;20440;-59
2022/01/19 12:47:02;;;;;;;28.95;12.13;;;;;;;;;;4954602;28;20041;-60
2022/01/19 12:49:29;;;;;;;31.70;11.93;;;;;;;;;;4954611;28;20029;-61
2022/01/19 12:51:56;;;;;;;34.45;14.95;;;;;;;;;;4954180;28;20497;-61
2022/01/19 12:54:26;;;;;;;35.13;14.90;;;;;;;;;;4954286;28;20023;-61
2022/01/19 12:56:55;;;;;;;32.78;13.00;;;;;;;;;;4954326;28;20118;-61
2022/01/19 12:59:21;;;;;;;32.47;12.73;;;;;;;;;;4954732;28;20023;-61
2022/01/19 13:01:47;;;;;;;31.80;11.85;;;;;;;;;;4954081;28;20051;-61
2022/01/19 13:04:26;;;;;;;32.60;12.63;;;;;;;;;;4953474;28;20015;-60
2022/01/19 13:06:55;;;;;;;34.63;13.93;;;;;;;;;;4954741;28;20055;-61
2022/01/19 13:09:36;;;;;;;40.00;15.43;;;;;;;;;;4954177;28;20043;-61
2022/01/19 13:12:15;;;;;;;45.37;17.07;;;;;;;;;;4954022;28;20730;-61
2022/01/19 13:14:41;;;;;;;39.90;13.25;;;;;;;;;;4936975;29;20273;-61
2022/01/19 13:17:07;;;;;;;36.13;14.40;;;;;;;;;;4954214;28;20039;-61
2022/01/19 13:19:34;;;;;;;33.22;13.52;;;;;;;;;;4954369;28;20027;-63
2022/01/19 13:22:06;;;;;;;33.30;13.50;;;;;;;;;;4954106;28;20027;-62
2022/01/19 13:24:33;;;;;;;33.72;13.35;;;;;;;;;;4953937;28;20039;-62
2022/01/19 13:27:00;;;;;;;32.13;13.35;;;;;;;;;;4953994;28;20391;-61
2022/01/19 13:29:34;;;;;;;29.05;11.50;;;;;;;;;;4953780;28;20104;-61
2022/01/19 13:32:00;;;;;;;39.28;14.13;;;;;;;;;;4953509;28;20035;-60
2022/01/19 13:34:27;;;;;;;35.58;13.45;;;;;;;;;;4953877;28;20050;-61
2022/01/19 13:36:54;;;;;;;36.42;14.43;;;;;;;;;;4953788;28;20067;-61
2022/01/19 13:39:21;;;;;;;37.45;15.63;;;;;;;;;;4953414;28;20118;-61
2022/01/19 13:41:50;;;;;;;38.33;14.23;;;;;;;;;;4953617;28;20035;-63
2022/01/19 13:44:21;;;;;;;35.70;13.35;;;;;;;;;;4953622;28;20046;-60
2022/01/19 13:46:47;;;;;;;35.50;16.02;;;;;;;;;;4953196;28;20029;-64
2022/01/19 13:49:13;;;;;;;32.60;14.50;;;;;;;;;;4960223;28;20058;-64
2022/01/19 13:51:43;;;;;;;37.65;13.93;;;;;;;;;;4959430;28;20039;-64
2022/01/19 13:54:10;;;;;;;34.13;13.10;;;;;;;;;;4952821;28;20446;-64
2022/01/19 13:56:37;;;;;;;31.17;13.32;;;;;;;;;;4953292;28;20093;-64
2022/01/19 13:59:11;;;;;;;46.35;16.77;;;;;;;;;;4953383;28;20030;-64
2022/01/19 14:01:40;;;;;;;36.75;14.45;;;;;;;;;;4953288;28;20251;-64
2022/01/19 14:04:07;;;;;;;31.95;13.48;;;;;;;;;;4953082;28;20074;-65
2022/01/19 14:06:33;;;;;;;38.58;12.90;;;;;;;;;;4952912;28;20027;-67
2022/01/19 14:09:27;;;;;;;34.20;13.15;;;;;;;;;;4952832;28;20544;-64
2022/01/19 14:12:00;;;;;;;35.10;14.32;;;;;;;;;;4907532;29;20139;-67
2022/01/19 14:14:32;;;;;;;37.20;15.27;;;;;;;;;;4912105;29;20119;-66
2022/01/19 14:16:58;;;;;;;36.10;14.47;;;;;;;;;;4912358;29;20099;-65
2022/01/19 14:19:27;;;;;;;34.70;13.10;;;;;;;;;;4912280;29;20111;-67
2022/01/19 14:21:53;;;;;;;47.45;20.77;;;;;;;;;;4912349;29;20032;-67
2022/01/19 14:24:19;;;;;;;63.88;29.08;;;;;;;;;;4912342;29;20036;-67
2022/01/19 14:26:55;;;;;;;83.03;34.63;;;;;;;;;;4912430;29;20504;-65
2022/01/19 14:29:21;;;;;;;77.47;34.28;;;;;;;;;;4912532;29;20119;-65
2022/01/19 14:31:55;;;;;;;76.95;34.63;;;;;;;;;;4912427;29;20032;-64
2022/01/19 14:34:38;;;;;;;73.57;34.92;;;;;;;;;;4911943;29;20036;-64
2022/01/19 14:37:20;;;;;;;72.53;34.92;;;;;;;;;;4912285;29;20465;-64
2022/01/19 14:39:48;;;;;;;76.85;34.60;;;;;;;;;;4912423;29;20032;-64
2022/01/19 14:42:16;;;;;;;81.00;39.28;;;;;;;;;;4912201;29;20051;-63
2022/01/19 14:44:47;;;;;;;78.45;35.95;;;;;;;;;;4908407;29;20021;-63
2022/01/19 14:47:35;;;;;;;83.15;37.03;;;;;;;;;;4905865;29;20035;-63
2022/01/19 14:50:15;;;;;;;85.65;37.80;;;;;;;;;;4952942;28;20502;-64
2022/01/19 14:52:41;;;;;;;82.82;38.08;;;;;;;;;;4952506;28;20077;-64
2022/01/19 14:55:08;;;;;;;84.47;37.97;;;;;;;;;;4952684;28;20104;-65
2022/01/19 14:57:34;;;;;;;83.53;37.75;;;;;;;;;;4952354;28;20039;-63
2022/01/19 15:00:02;;;;;;;82.93;39.35;;;;;;;;;;4952456;28;20069;-63
2022/01/19 15:02:29;;;;;;;82.13;38.70;;;;;;;;;;4952209;28;20110;-64
2022/01/19 15:04:55;;;;;;;93.32;41.42;;;;;;;;;;4951921;28;20035;-64
2022/01/19 15:07:21;;;;;;;84.70;41.88;;;;;;;;;;4959814;28;20042;-63
2022/01/19 15:09:47;;;;;;;91.63;42.80;;;;;;;;;;4961473;28;20031;-65
2022/01/19 15:12:13;;;;;;;95.28;43.55;;;;;;;;;;4961152;28;20399;-63
2022/01/19 15:14:40;;;;;;;92.07;42.97;;;;;;;;;;4959657;28;20019;-63
2022/01/19 15:17:08;;;;;;;101.82;47.00;;;;;;;;;;4960919;28;20065;-63
2022/01/19 15:19:34;;;;;;;106.85;47.72;;;;;;;;;;4961578;28;20023;-66
2022/01/19 15:22:00;;;;;;;115.07;52.13;;;;;;;;;;4960020;28;20046;-64
2022/01/19 15:24:26;;;;;;;114.45;53.65;;;;;;;;;;4961410;28;20626;-62
2022/01/19 15:26:52;;;;;;;124.78;54.83;;;;;;;;;;4961355;28;20035;-64
2022/01/19 15:29:18;;;;;;;120.82;53.63;;;;;;;;;;4962921;28;20051;-67
2022/01/19 15:31:45;;;;;;;124.93;58.95;;;;;;;;;;4965377;28;20482;-65
2022/01/19 15:34:11;;;;;;;124.15;59.75;;;;;;;;;;4964481;28;20031;-63
2022/01/19 15:36:37;;;;;;;138.07;62.28;;;;;;;;;;4963778;28;20026;-65
2022/01/19 15:39:07;;;;;;;143.65;65.25;;;;;;;;;;4963255;28;20062;-61
2022/01/19 15:41:33;;;;;;;144.65;67.10;;;;;;;;;;4964152;28;20099;-64
2022/01/19 15:43:59;;;;;;;155.32;71.70;;;;;;;;;;4965302;28;20035;-61
2022/01/19 15:46:25;;;;;;;148.07;71.95;;;;;;;;;;4963161;28;20019;-61
2022/01/19 15:48:51;;;;;;;150.25;72.07;;;;;;;;;;4964039;28;20166;-62
2022/01/19 15:51:17;;;;;;;151.18;72.65;;;;;;;;;;4964830;28;20023;-62
2022/01/19 15:53:43;;;;;;;155.43;72.55;;;;;;;;;;4963013;28;20031;-63
2022/01/19 15:56:09;;;;;;;157.30;73.65;;;;;;;;;;4964274;28;20019;-63
2022/01/19 15:58:36;;;;;;;161.38;76.78;;;;;;;;;;4962556;28;20510;-65
2022/01/19 16:01:02;;;;;;;171.82;77.60;;;;;;;;;;4963046;28;20049;-63
2022/01/19 16:03:28;;;;;;;174.52;81.85;;;;;;;;;;4965105;28;20370;-65
2022/01/19 16:05:55;;;;;;;176.48;81.65;;;;;;;;;;4964403;28;20019;-63
2022/01/19 16:08:21;;;;;;;197.23;89.75;;;;;;;;;;4962587;28;20447;-64
2022/01/19 16:10:49;;;;;;;204.93;93.60;;;;;;;;;;4964795;28;20049;-63
2022/01/19 16:13:15;;;;;;;207.32;93.50;;;;;;;;;;4964127;28;20106;-63
2022/01/19 16:15:41;;;;;;;203.43;90.82;;;;;;;;;;4957882;28;20082;-63
2022/01/19 16:18:07;;;;;;;212.70;94.45;;;;;;;;;;4955031;28;20111;-62
2022/01/19 16:20:34;;;;;;;223.02;98.82;;;;;;;;;;4957432;28;20519;-63
2022/01/19 16:28:31;;;;;;;200.80;92.38;;;;;;;;;;4973891;28;20038;-63
2022/01/19 16:30:57;;;;;;;190.05;86.30;;;;;;;;;;4974199;28;20487;-64
2022/01/19 16:33:23;;;;;;;185.98;86.05;;;;;;;;;;4968177;28;20080;-62
2022/01/19 16:35:49;;;;;;;189.45;84.85;;;;;;;;;;4963835;28;20027;-63
2022/01/19 16:38:15;;;;;;;186.90;87.28;;;;;;;;;;4972172;28;20054;-64
2022/01/19 16:40:47;;;;;;;178.25;81.45;;;;;;;;;;4974269;28;20154;-63
2022/01/19 16:43:14;;;;;;;181.90;83.85;;;;;;;;;;4973741;28;20041;-63
2022/01/19 16:45:40;;;;;;;180.50;81.40;;;;;;;;;;4974077;28;20509;-61
2022/01/19 16:48:06;;;;;;;178.45;80.32;;;;;;;;;;4974197;28;20026;-63
2022/01/19 16:50:32;;;;;;;184.02;82.30;;;;;;;;;;4965052;28;20023;-63
2022/01/19 16:52:59;;;;;;;183.70;83.90;;;;;;;;;;4973299;28;20061;-63
2022/01/19 16:55:25;;;;;;;184.68;83.78;;;;;;;;;;4973755;28;20501;-63
2022/01/19 16:57:52;;;;;;;183.35;80.57;;;;;;;;;;4974225;28;20434;-63
2022/01/19 17:00:19;;;;;;;174.27;80.72;;;;;;;;;;4962441;28;20415;-63
2022/01/19 17:02:47;;;;;;;172.88;77.15;;;;;;;;;;4970850;28;20081;-64
2022/01/19 17:05:13;;;;;;;163.43;73.35;;;;;;;;;;4966540;28;20058;-64
2022/01/19 17:07:39;;;;;;;167.05;72.53;;;;;;;;;;4964414;28;20131;-63
2022/01/19 17:10:11;;;;;;;149.25;66.80;;;;;;;;;;4967470;28;20038;-64
2022/01/19 17:12:41;;;;;;;156.80;68.17;;;;;;;;;;4957919;28;20035;-63
2022/01/19 17:15:17;;;;;;;146.48;63.00;;;;;;;;;;4968532;28;20075;-64
2022/01/19 17:17:46;;;;;;;143.15;65.80;;;;;;;;;;4963224;28;20034;-61
2022/01/19 17:20:12;;;;;;;147.68;65.32;;;;;;;;;;4961121;28;20443;-62
2022/01/19 17:22:39;;;;;;;156.57;70.75;;;;;;;;;;4959463;28;20031;-61
2022/01/19 17:25:05;;;;;;;149.32;65.97;;;;;;;;;;4964519;28;20027;-61
2022/01/19 17:27:31;;;;;;;151.25;67.72;;;;;;;;;;4966295;28;20027;-64
2022/01/19 17:29:57;;;;;;;145.30;69.05;;;;;;;;;;4957689;28;20032;-61
2022/01/19 17:32:23;;;;;;;148.30;71.47;;;;;;;;;;4957376;28;20518;-61
2022/01/19 17:34:52;;;;;;;147.93;74.38;;;;;;;;;;4965992;28;20388;-62
2022/01/19 17:37:18;;;;;;;156.70;78.40;;;;;;;;;;4964736;28;20039;-63
2022/01/19 17:39:44;;;;;;;166.55;83.15;;;;;;;;;;4959133;28;20154;-62
2022/01/19 17:42:10;;;;;;;168.00;84.03;;;;;;;;;;4969364;28;20037;-63
2022/01/19 17:44:36;;;;;;;170.35;84.45;;;;;;;;;;4958783;28;20101;-63
2022/01/19 17:47:49;;;;;;;176.48;85.68;;;;;;;;;;4964034;28;20395;-66
2022/01/19 17:50:25;;;;;;;162.68;81.28;;;;;;;;;;4966512;28;20121;-62
2022/01/19 17:52:51;;;;;;;172.32;84.78;;;;;;;;;;4960654;28;20053;-64
2022/01/19 17:55:18;;;;;;;166.73;84.35;;;;;;;;;;4962089;28;20046;-61
2022/01/19 17:57:44;;;;;;;177.15;88.57;;;;;;;;;;4967371;28;20030;-62
2022/01/19 18:00:11;;;;;;;180.13;86.28;;;;;;;;;;4956643;28;20087;-63
2022/01/19 18:02:38;;;;;;;172.85;85.05;;;;;;;;;;4967346;28;20102;-64
2022/01/19 18:05:05;;;;;;;167.15;81.75;;;;;;;;;;4962349;28;20038;-63
2022/01/19 18:07:31;;;;;;;167.00;80.90;;;;;;;;;;4960104;28;20139;-61
2022/01/19 18:09:58;;;;;;;169.90;82.57;;;;;;;;;;4969404;28;20046;-62
2022/01/19 18:12:24;;;;;;;154.90;73.60;;;;;;;;;;4956686;28;20034;-63
2022/01/19 18:14:50;;;;;;;168.43;79.97;;;;;;;;;;4965330;28;20027;-61
2022/01/19 18:17:16;;;;;;;166.05;79.07;;;;;;;;;;4964242;28;20363;-62
2022/01/19 18:19:42;;;;;;;182.80;84.15;;;;;;;;;;4958526;28;20495;-62
2022/01/19 18:22:09;;;;;;;163.63;76.85;;;;;;;;;;4968919;28;20038;-62
2022/01/19 18:24:37;;;;;;;148.57;69.65;;;;;;;;;;4958314;28;20363;-61
2022/01/19 18:27:04;;;;;;;143.55;67.80;;;;;;;;;;4963379;28;20031;-62
2022/01/19 18:29:30;;;;;;;144.45;66.13;;;;;;;;;;4947636;28;20023;-61
2022/01/19 18:31:57;;;;;;;153.65;71.82;;;;;;;;;;4956249;28;20043;-61
2022/01/19 18:34:24;;;;;;;137.60;64.18;;;;;;;;;;4956468;28;20055;-61
2022/01/19 18:36:51;;;;;;;131.40;60.75;;;;;;;;;;4965217;28;20031;-61
2022/01/19 18:39:17;;;;;;;123.57;56.90;;;;;;;;;;4963010;28;20057;-62
2022/01/19 18:41:43;;;;;;;112.75;54.75;;;;;;;;;;4968347;28;20034;-62
2022/01/19 18:44:09;;;;;;;122.72;53.47;;;;;;;;;;4960797;28;20486;-62
2022/01/19 18:46:35;;;;;;;110.68;50.22;;;;;;;;;;4959524;28;20059;-62
2022/01/19 18:49:02;;;;;;;116.43;49.60;;;;;;;;;;4961003;28;20027;-62
2022/01/19 18:51:28;;;;;;;112.68;47.35;;;;;;;;;;4962745;28;20121;-62
2022/01/19 18:53:57;;;;;;;106.43;44.33;;;;;;;;;;4961357;28;20038;-63
2022/01/19 18:56:23;;;;;;;99.28;42.03;;;;;;;;;;4943231;28;20498;-62
2022/01/19 18:58:49;;;;;;;92.03;36.65;;;;;;;;;;4966889;28;20035;-61
2022/01/19 19:01:15;;;;;;;88.40;38.22;;;;;;;;;;4972190;28;20030;-63
2022/01/19 19:03:44;;;;;;;87.80;35.33;;;;;;;;;;4973881;28;20033;-63
2022/01/19 19:06:10;;;;;;;69.82;32.97;;;;;;;;;;4975890;28;20030;-62
2022/01/19 19:08:36;;;;;;;71.57;32.15;;;;;;;;;;4975814;28;20055;-64
2022/01/19 19:11:18;;;;;;;76.55;32.88;;;;;;;;;;4976084;28;20031;-64
2022/01/19 19:13:44;;;;;;;82.18;36.05;;;;;;;;;;4976104;28;20077;-61
2022/01/19 19:16:10;;;;;;;74.38;34.40;;;;;;;;;;4975608;28;20034;-63
2022/01/19 19:18:36;;;;;;;81.55;36.33;;;;;;;;;;4976057;28;20035;-63
2022/01/19 19:21:02;;;;;;;79.63;35.38;;;;;;;;;;4975713;28;20154;-63
2022/01/19 19:23:28;;;;;;;74.78;34.13;;;;;;;;;;4976023;28;20030;-62
2022/01/19 19:25:54;;;;;;;75.10;33.88;;;;;;;;;;4975709;28;20026;-62
2022/01/19 19:28:21;;;;;;;77.43;35.40;;;;;;;;;;4975883;28;20039;-63
2022/01/19 19:30:49;;;;;;;77.95;33.72;;;;;;;;;;4975609;28;20111;-64
2022/01/19 19:33:16;;;;;;;76.18;31.63;;;;;;;;;;4975394;28;20030;-62
2022/01/19 19:35:42;;;;;;;80.18;32.78;;;;;;;;;;4975157;28;20033;-63
2022/01/19 19:38:08;;;;;;;98.78;41.13;;;;;;;;;;4975422;28;20031;-63
2022/01/19 19:40:36;;;;;;;103.38;45.58;;;;;;;;;;4975694;28;20474;-63
2022/01/19 19:43:03;;;;;;;124.35;52.45;;;;;;;;;;4975309;28;20387;-65
2022/01/19 19:45:29;;;;;;;128.00;54.63;;;;;;;;;;4975321;28;20395;-62
2022/01/19 19:47:55;;;;;;;104.25;45.30;;;;;;;;;;4975324;28;20431;-62
2022/01/19 19:50:24;;;;;;;91.47;39.63;;;;;;;;;;4975250;28;20139;-64
2022/01/19 19:52:52;;;;;;;76.18;31.73;;;;;;;;;;4975407;28;20380;-66
2022/01/19 19:55:19;;;;;;;56.03;25.27;;;;;;;;;;4975395;28;20023;-63
2022/01/19 19:57:45;;;;;;;59.85;26.02;;;;;;;;;;4975314;28;20041;-63
2022/01/19 20:00:16;;;;;;;70.35;28.17;;;;;;;;;;4975483;28;20019;-62
2022/01/19 20:02:42;;;;;;;73.25;30.25;;;;;;;;;;4975474;28;20480;-65
2022/01/19 20:05:08;;;;;;;67.80;28.60;;;;;;;;;;4975086;28;20031;-63
2022/01/19 20:07:34;;;;;;;69.15;28.63;;;;;;;;;;4965911;28;20043;-63
2022/01/19 20:10:01;;;;;;;72.18;28.77;;;;;;;;;;4972285;28;20026;-63
2022/01/19 20:12:29;;;;;;;64.40;27.58;;;;;;;;;;4971866;28;20395;-59
2022/01/19 20:14:57;;;;;;;68.28;28.33;;;;;;;;;;4966782;28;20027;-62
2022/01/19 20:17:23;;;;;;;66.57;27.63;;;;;;;;;;4956272;28;20030;-64
2022/01/19 20:19:49;;;;;;;65.53;26.33;;;;;;;;;;4955480;29;20162;-63
2022/01/19 20:22:19;;;;;;;64.63;26.52;;;;;;;;;;4955706;29;20121;-62
2022/01/19 20:24:45;;;;;;;65.32;26.95;;;;;;;;;;4955339;29;20162;-61
2022/01/19 20:27:11;;;;;;;65.05;26.90;;;;;;;;;;4955587;29;20038;-62
2022/01/19 20:29:37;;;;;;;57.15;24.55;;;;;;;;;;4960291;28;20041;-63
2022/01/19 20:32:03;;;;;;;53.08;23.75;;;;;;;;;;4965547;28;20038;-61
2022/01/19 20:34:29;;;;;;;52.22;21.80;;;;;;;;;;4954845;29;20407;-61
2022/01/19 20:36:56;;;;;;;51.50;21.92;;;;;;;;;;4954616;29;20043;-64
2022/01/19 20:39:22;;;;;;;50.60;20.45;;;;;;;;;;4955011;29;20024;-62
2022/01/19 20:41:49;;;;;;;51.63;21.50;;;;;;;;;;4954982;29;20033;-60
2022/01/19 20:44:16;;;;;;;54.58;21.42;;;;;;;;;;4954928;29;20031;-62
2022/01/19 20:46:42;;;;;;;61.97;25.05;;;;;;;;;;4954737;29;20443;-62
2022/01/19 20:49:09;;;;;;;80.28;31.25;;;;;;;;;;4954962;29;20151;-62
2022/01/19 20:51:37;;;;;;;112.82;44.13;;;;;;;;;;4954666;29;20462;-62
2022/01/19 20:54:03;;;;;;;137.32;53.97;;;;;;;;;;4954590;29;20038;-65
2022/01/19 20:56:30;;;;;;;152.63;60.65;;;;;;;;;;4954903;29;20020;-63
2022/01/19 20:58:56;;;;;;;141.80;53.70;;;;;;;;;;4954663;29;20066;-63
2022/01/19 21:01:24;;;;;;;132.65;53.25;;;;;;;;;;4960494;28;20383;-63
2022/01/19 21:03:50;;;;;;;128.70;52.83;;;;;;;;;;4962259;28;20031;-60
2022/01/19 21:06:16;;;;;;;139.02;55.63;;;;;;;;;;4954698;29;20550;-60
2022/01/19 21:08:43;;;;;;;126.97;52.65;;;;;;;;;;4954488;29;20059;-61
2022/01/19 21:11:09;;;;;;;122.18;49.63;;;;;;;;;;4958130;28;20042;-60
2022/01/19 21:13:35;;;;;;;114.78;47.95;;;;;;;;;;4962225;28;20078;-61
2022/01/19 21:16:02;;;;;;;101.93;42.55;;;;;;;;;;4954447;29;20460;-61
2022/01/19 21:18:30;;;;;;;84.68;35.10;;;;;;;;;;4954286;28;20498;-60
2022/01/19 21:20:56;;;;;;;64.07;30.38;;;;;;;;;;4974084;28;20026;-62
2022/01/19 21:23:23;;;;;;;66.03;26.63;;;;;;;;;;4973553;28;20047;-61
2022/01/19 21:25:49;;;;;;;61.40;25.52;;;;;;;;;;4947550;28;20427;-61
2022/01/19 21:28:16;;;;;;;56.00;23.52;;;;;;;;;;4956918;28;20038;-62
2022/01/19 21:30:44;;;;;;;58.70;23.83;;;;;;;;;;4954940;29;20034;-63
2022/01/19 21:33:10;;;;;;;56.15;24.13;;;;;;;;;;4957872;28;20046;-63
2022/01/19 21:35:37;;;;;;;58.97;22.23;;;;;;;;;;4959380;28;20443;-62
2022/01/19 21:38:03;;;;;;;52.53;23.50;;;;;;;;;;4936738;29;20042;-63